Time;durP1;ratioP1;P1;durP2;ratioP2;P2;SDS_P1;SDS_P2;PMS_P1;PMS_P2;Temp;Humidity;BMP_temperature;BMP_pressure;BME280_temperature;BME280_humidity;BME280_pressure;Samples;Min_cycle;Max_cycle;Signal;HPM_P1;HPM_P2
2022/01/01 00:00:54;;;;;;;27.40;20.33;;;;;;;;;;5096333;28;20448;-67
2022/01/01 00:03:21;;;;;;;31.33;21.40;;;;;;;;;;5096649;28;20532;-67
2022/01/01 00:05:48;;;;;;;31.90;21.77;;;;;;;;;;5096282;28;21025;-67
2022/01/01 00:08:16;;;;;;;25.13;18.53;;;;;;;;;;5096357;28;20995;-67
2022/01/01 00:10:43;;;;;;;25.83;18.50;;;;;;;;;;5095917;28;20452;-67
2022/01/01 00:13:10;;;;;;;25.47;18.07;;;;;;;;;;5096153;28;20776;-67
2022/01/01 00:15:38;;;;;;;24.57;18.63;;;;;;;;;;5095901;28;20534;-67
2022/01/01 00:18:06;;;;;;;23.50;16.33;;;;;;;;;;5097042;28;20506;-68
2022/01/01 00:20:33;;;;;;;21.97;17.43;;;;;;;;;;5095822;28;20469;-67
2022/01/01 00:23:01;;;;;;;25.40;16.17;;;;;;;;;;5096014;28;20864;-67
2022/01/01 00:25:28;;;;;;;28.17;19.17;;;;;;;;;;5096024;28;20541;-67
2022/01/01 00:27:55;;;;;;;28.13;18.00;;;;;;;;;;5095907;28;20505;-66
2022/01/01 00:30:22;;;;;;;28.20;18.47;;;;;;;;;;5095553;28;20597;-66
2022/01/01 00:32:50;;;;;;;25.50;17.00;;;;;;;;;;5095850;28;20987;-66
2022/01/01 00:35:18;;;;;;;20.83;15.07;;;;;;;;;;5095524;28;20531;-66
2022/01/01 00:37:45;;;;;;;23.27;14.63;;;;;;;;;;5095715;28;20478;-67
2022/01/01 00:40:13;;;;;;;25.60;16.17;;;;;;;;;;5095663;28;20448;-66
2022/01/01 00:42:40;;;;;;;28.13;16.83;;;;;;;;;;5095708;28;20472;-67
2022/01/01 00:45:08;;;;;;;22.33;15.50;;;;;;;;;;5096174;28;20875;-67
2022/01/01 00:47:35;;;;;;;22.90;15.07;;;;;;;;;;5095752;28;20559;-66
2022/01/01 00:50:02;;;;;;;19.03;14.60;;;;;;;;;;5095442;28;20488;-66
2022/01/01 00:52:31;;;;;;;23.60;14.83;;;;;;;;;;5095252;28;20441;-67
2022/01/01 00:54:58;;;;;;;22.60;15.50;;;;;;;;;;5095301;28;20448;-66
2022/01/01 00:57:25;;;;;;;19.57;16.07;;;;;;;;;;5095440;28;20873;-66
2022/01/01 00:59:53;;;;;;;22.27;15.00;;;;;;;;;;5094057;28;20800;-66
2022/01/01 01:02:20;;;;;;;20.30;14.53;;;;;;;;;;5095274;28;20531;-66
2022/01/01 01:04:47;;;;;;;27.23;16.33;;;;;;;;;;5094898;28;20485;-66
2022/01/01 01:07:15;;;;;;;24.83;16.27;;;;;;;;;;5095124;28;20554;-66
2022/01/01 01:09:43;;;;;;;24.60;15.67;;;;;;;;;;5094797;28;20534;-66
2022/01/01 01:12:11;;;;;;;18.57;13.43;;;;;;;;;;5095065;28;20472;-66
2022/01/01 01:14:41;;;;;;;24.70;15.47;;;;;;;;;;5095370;28;20444;-66
2022/01/01 01:17:10;;;;;;;21.93;13.07;;;;;;;;;;5095185;28;20482;-67
2022/01/01 01:19:37;;;;;;;26.00;15.60;;;;;;;;;;5095265;28;20448;-66
2022/01/01 01:22:05;;;;;;;21.27;15.17;;;;;;;;;;5095306;28;20444;-68
2022/01/01 01:24:33;;;;;;;23.07;14.00;;;;;;;;;;5094563;28;20981;-67
2022/01/01 01:27:02;;;;;;;19.00;13.20;;;;;;;;;;5094802;28;20515;-66
2022/01/01 01:29:31;;;;;;;18.80;13.40;;;;;;;;;;5095025;28;20932;-66
2022/01/01 01:31:58;;;;;;;27.53;15.70;;;;;;;;;;5094786;28;20485;-66
2022/01/01 01:34:26;;;;;;;18.73;11.23;;;;;;;;;;5094509;28;21003;-67
2022/01/01 01:36:53;;;;;;;21.50;13.10;;;;;;;;;;5094662;28;20479;-68
2022/01/01 01:39:20;;;;;;;22.03;13.67;;;;;;;;;;5094582;28;21006;-67
2022/01/01 01:41:49;;;;;;;25.13;15.33;;;;;;;;;;5095006;28;20526;-66
2022/01/01 01:44:29;;;;;;;20.40;14.70;;;;;;;;;;5094102;28;20463;-67
2022/01/01 01:46:59;;;;;;;20.50;13.27;;;;;;;;;;5095051;28;20490;-66
2022/01/01 01:49:26;;;;;;;24.07;15.30;;;;;;;;;;5094545;28;20445;-66
2022/01/01 01:51:53;;;;;;;27.00;12.60;;;;;;;;;;5094410;28;20449;-66
2022/01/01 01:54:20;;;;;;;19.87;14.63;;;;;;;;;;5094053;28;20522;-67
2022/01/01 01:56:48;;;;;;;21.27;17.17;;;;;;;;;;5093973;28;21018;-66
2022/01/01 01:59:16;;;;;;;31.67;16.33;;;;;;;;;;5094361;28;20441;-67
2022/01/01 02:01:44;;;;;;;24.53;15.63;;;;;;;;;;5093918;28;20543;-66
2022/01/01 02:04:11;;;;;;;26.30;15.03;;;;;;;;;;5093842;28;20484;-66
2022/01/01 02:06:41;;;;;;;29.07;16.80;;;;;;;;;;5094256;28;20471;-66
2022/01/01 02:09:10;;;;;;;28.13;16.47;;;;;;;;;;5093743;28;20438;-66
2022/01/01 02:11:37;;;;;;;24.50;16.17;;;;;;;;;;5093851;28;20918;-66
2022/01/01 02:14:15;;;;;;;29.67;17.73;;;;;;;;;;5093767;28;20536;-66
2022/01/01 02:19:29;;;;;;;26.10;17.33;;;;;;;;;;5093704;28;20404;-67
2022/01/01 02:22:00;;;;;;;27.70;16.90;;;;;;;;;;5093530;28;20472;-67
2022/01/01 02:24:27;;;;;;;33.50;18.33;;;;;;;;;;5094418;28;20437;-66
2022/01/01 02:26:55;;;;;;;37.67;19.37;;;;;;;;;;5094161;28;20904;-66
2022/01/01 02:29:22;;;;;;;34.93;16.77;;;;;;;;;;5093727;28;20531;-68
2022/01/01 02:31:50;;;;;;;27.17;17.53;;;;;;;;;;5094507;28;20524;-67
2022/01/01 02:34:18;;;;;;;24.83;17.77;;;;;;;;;;5093723;28;20452;-67
2022/01/01 02:36:46;;;;;;;31.20;17.00;;;;;;;;;;5093668;28;20450;-67
2022/01/01 02:39:17;;;;;;;28.77;16.80;;;;;;;;;;5093669;28;20476;-67
2022/01/01 02:41:45;;;;;;;32.37;17.00;;;;;;;;;;5093603;28;20968;-67
2022/01/01 02:44:12;;;;;;;34.80;18.50;;;;;;;;;;5093979;28;20526;-67
2022/01/01 02:46:39;;;;;;;29.20;17.60;;;;;;;;;;5093173;28;20506;-67
2022/01/01 02:49:07;;;;;;;31.40;15.90;;;;;;;;;;5093336;28;20569;-67
2022/01/01 02:51:34;;;;;;;33.33;17.33;;;;;;;;;;5093162;28;21014;-67
2022/01/01 02:54:02;;;;;;;28.20;17.20;;;;;;;;;;5093108;28;20448;-66
2022/01/01 02:56:30;;;;;;;21.83;15.30;;;;;;;;;;5093068;28;20472;-66
2022/01/01 02:58:57;;;;;;;26.10;17.53;;;;;;;;;;5093656;28;20528;-67
2022/01/01 03:01:25;;;;;;;35.93;18.50;;;;;;;;;;5093700;28;20484;-68
2022/01/01 03:03:52;;;;;;;27.80;16.50;;;;;;;;;;5093541;28;20808;-67
2022/01/01 03:06:20;;;;;;;38.63;18.30;;;;;;;;;;5093060;28;20535;-67
2022/01/01 03:08:50;;;;;;;28.13;17.03;;;;;;;;;;5093338;28;20498;-67
2022/01/01 03:11:17;;;;;;;28.50;16.77;;;;;;;;;;5093284;28;20480;-67
2022/01/01 03:13:46;;;;;;;29.70;15.40;;;;;;;;;;5093721;28;20451;-67
2022/01/01 03:16:13;;;;;;;35.60;16.87;;;;;;;;;;5093153;28;20452;-67
2022/01/01 03:18:41;;;;;;;27.43;16.70;;;;;;;;;;5093031;28;20528;-67
2022/01/01 03:21:08;;;;;;;33.13;18.87;;;;;;;;;;5092878;28;20441;-66
2022/01/01 03:23:36;;;;;;;27.60;17.30;;;;;;;;;;5096183;28;20453;-67
2022/01/01 03:26:03;;;;;;;36.83;18.23;;;;;;;;;;5096841;28;20441;-67
2022/01/01 03:28:32;;;;;;;26.20;17.57;;;;;;;;;;5097228;28;20522;-67
2022/01/01 03:31:00;;;;;;;36.23;16.07;;;;;;;;;;5096731;28;20999;-66
2022/01/01 03:33:28;;;;;;;26.57;14.73;;;;;;;;;;5096999;28;20448;-66
2022/01/01 03:35:55;;;;;;;28.13;16.43;;;;;;;;;;5097411;28;20957;-67
2022/01/01 03:38:22;;;;;;;34.00;17.80;;;;;;;;;;5097124;28;20495;-66
2022/01/01 03:40:50;;;;;;;29.63;15.00;;;;;;;;;;5096913;28;20516;-67
2022/01/01 03:43:17;;;;;;;25.23;15.67;;;;;;;;;;5097067;28;20449;-67
2022/01/01 03:45:44;;;;;;;29.57;16.83;;;;;;;;;;5097156;28;20441;-67
2022/01/01 03:48:13;;;;;;;26.07;17.90;;;;;;;;;;5096687;28;20562;-67
2022/01/01 03:50:40;;;;;;;38.57;15.33;;;;;;;;;;5096340;28;20440;-67
2022/01/01 03:53:07;;;;;;;28.90;14.33;;;;;;;;;;5097101;28;20523;-67
2022/01/01 03:55:35;;;;;;;25.90;15.63;;;;;;;;;;5096781;28;20474;-67
2022/01/01 03:58:02;;;;;;;23.37;14.90;;;;;;;;;;5096500;28;20516;-67
2022/01/01 04:00:29;;;;;;;32.67;17.33;;;;;;;;;;5096566;28;20494;-67
2022/01/01 04:03:06;;;;;;;23.57;16.00;;;;;;;;;;5096520;28;20473;-67
2022/01/01 04:05:35;;;;;;;39.83;16.97;;;;;;;;;;5096170;28;20519;-67
2022/01/01 04:08:02;;;;;;;26.23;15.53;;;;;;;;;;5096319;28;20992;-67
2022/01/01 04:10:31;;;;;;;27.63;15.53;;;;;;;;;;5095981;28;20453;-67
2022/01/01 04:12:58;;;;;;;26.67;16.47;;;;;;;;;;5096447;28;20642;-67
2022/01/01 04:15:25;;;;;;;38.03;16.67;;;;;;;;;;5095959;28;20444;-67
2022/01/01 04:17:57;;;;;;;29.70;16.10;;;;;;;;;;5095884;28;20565;-67
2022/01/01 04:20:24;;;;;;;30.13;14.97;;;;;;;;;;5096309;28;20896;-67
2022/01/01 04:22:53;;;;;;;23.13;16.20;;;;;;;;;;5095759;28;20940;-67
2022/01/01 04:25:21;;;;;;;24.93;16.37;;;;;;;;;;5095677;28;20477;-67
2022/01/01 04:27:48;;;;;;;26.57;16.70;;;;;;;;;;5096010;28;20899;-67
2022/01/01 04:30:15;;;;;;;26.73;16.33;;;;;;;;;;5095604;28;20456;-67
2022/01/01 04:32:43;;;;;;;24.57;16.60;;;;;;;;;;5095841;28;20528;-67
2022/01/01 04:35:10;;;;;;;21.23;14.13;;;;;;;;;;5094489;28;20806;-67
2022/01/01 04:37:38;;;;;;;31.67;18.47;;;;;;;;;;5095486;28;20441;-67
2022/01/01 04:40:07;;;;;;;24.37;17.63;;;;;;;;;;5095430;28;20468;-67
2022/01/01 04:42:35;;;;;;;27.90;16.00;;;;;;;;;;5096097;28;20535;-67
2022/01/01 04:45:02;;;;;;;27.00;16.57;;;;;;;;;;5096034;28;20871;-67
2022/01/01 04:47:29;;;;;;;32.63;18.67;;;;;;;;;;5095590;28;20477;-67
2022/01/01 04:49:57;;;;;;;24.60;15.40;;;;;;;;;;5095738;28;20491;-67
2022/01/01 04:52:24;;;;;;;28.80;17.17;;;;;;;;;;5095248;28;20449;-67
2022/01/01 04:54:51;;;;;;;27.67;16.93;;;;;;;;;;5096146;28;20531;-67
2022/01/01 04:57:22;;;;;;;30.93;15.67;;;;;;;;;;5095595;28;20930;-67
2022/01/01 04:59:49;;;;;;;21.83;14.90;;;;;;;;;;5095535;28;20813;-67
2022/01/01 05:02:16;;;;;;;27.13;14.87;;;;;;;;;;5095335;28;20539;-67
2022/01/01 05:04:43;;;;;;;31.20;16.63;;;;;;;;;;5094987;28;20448;-67
2022/01/01 05:07:11;;;;;;;29.90;15.87;;;;;;;;;;5095247;28;20523;-67
2022/01/01 05:09:38;;;;;;;26.30;16.30;;;;;;;;;;5095107;28;20473;-67
2022/01/01 05:12:06;;;;;;;30.40;16.20;;;;;;;;;;5094804;28;20443;-67
2022/01/01 05:14:35;;;;;;;23.40;16.13;;;;;;;;;;5095373;28;20447;-67
2022/01/01 05:17:02;;;;;;;32.37;15.30;;;;;;;;;;5094939;28;20483;-68
2022/01/01 05:19:29;;;;;;;22.07;15.27;;;;;;;;;;5095007;28;20444;-68
2022/01/01 05:21:57;;;;;;;34.10;15.70;;;;;;;;;;5095653;28;20822;-67
2022/01/01 05:24:24;;;;;;;32.57;17.23;;;;;;;;;;5094578;28;20505;-68
2022/01/01 05:26:52;;;;;;;32.00;18.90;;;;;;;;;;5094134;28;20445;-67
2022/01/01 05:29:19;;;;;;;26.30;16.00;;;;;;;;;;5095141;28;20565;-67
2022/01/01 05:31:48;;;;;;;35.37;14.80;;;;;;;;;;5094781;28;20873;-67
2022/01/01 05:34:15;;;;;;;28.23;16.27;;;;;;;;;;5094412;28;20440;-67
2022/01/01 05:36:42;;;;;;;26.83;15.00;;;;;;;;;;5094937;28;20522;-67
2022/01/01 05:39:10;;;;;;;20.30;14.00;;;;;;;;;;5094618;28;20529;-68
2022/01/01 05:41:37;;;;;;;26.53;16.13;;;;;;;;;;5094574;28;20504;-67
2022/01/01 05:44:05;;;;;;;22.60;14.20;;;;;;;;;;5094547;28;20534;-67
2022/01/01 05:46:32;;;;;;;30.47;16.33;;;;;;;;;;5094095;28;20525;-67
2022/01/01 05:49:01;;;;;;;32.17;15.00;;;;;;;;;;5094037;28;20514;-68
2022/01/01 05:51:28;;;;;;;38.53;16.63;;;;;;;;;;5094777;28;20948;-67
2022/01/01 05:53:55;;;;;;;25.13;15.03;;;;;;;;;;5093985;28;20539;-68
2022/01/01 05:56:22;;;;;;;34.57;17.70;;;;;;;;;;5093796;28;20527;-67
2022/01/01 05:58:49;;;;;;;29.93;15.47;;;;;;;;;;5094153;28;20445;-68
2022/01/01 06:01:17;;;;;;;24.03;15.23;;;;;;;;;;5094169;28;20531;-67
2022/01/01 06:03:44;;;;;;;23.87;15.17;;;;;;;;;;5094158;28;20473;-67
2022/01/01 06:06:12;;;;;;;28.33;16.50;;;;;;;;;;5093808;28;20442;-67
2022/01/01 06:08:40;;;;;;;31.80;15.67;;;;;;;;;;5094339;28;20571;-67
2022/01/01 06:11:07;;;;;;;27.80;14.07;;;;;;;;;;5094471;28;20870;-67
2022/01/01 06:13:34;;;;;;;33.83;15.00;;;;;;;;;;5094260;28;20455;-68
2022/01/01 06:16:01;;;;;;;19.67;12.40;;;;;;;;;;5093807;28;20863;-67
2022/01/01 06:18:28;;;;;;;23.40;14.13;;;;;;;;;;5093896;28;20477;-67
2022/01/01 06:20:56;;;;;;;21.33;12.43;;;;;;;;;;5093864;28;20442;-68
2022/01/01 06:23:25;;;;;;;26.77;13.50;;;;;;;;;;5093526;28;20445;-68
2022/01/01 06:25:52;;;;;;;23.20;13.57;;;;;;;;;;5093788;28;20487;-68
2022/01/01 06:28:19;;;;;;;26.30;13.50;;;;;;;;;;5093620;28;20441;-68
2022/01/01 06:30:47;;;;;;;20.20;12.07;;;;;;;;;;5093353;28;20528;-68
2022/01/01 06:33:14;;;;;;;20.67;13.30;;;;;;;;;;5093758;28;20524;-68
2022/01/01 06:35:42;;;;;;;21.47;13.30;;;;;;;;;;5093387;28;20519;-67
2022/01/01 06:38:09;;;;;;;21.13;12.50;;;;;;;;;;5094026;28;20476;-67
2022/01/01 06:40:39;;;;;;;19.30;10.97;;;;;;;;;;5093879;28;20441;-67
2022/01/01 06:43:06;;;;;;;20.10;11.80;;;;;;;;;;5093612;28;20436;-67
2022/01/01 06:45:34;;;;;;;20.27;12.00;;;;;;;;;;5093633;28;20548;-67
2022/01/01 06:48:01;;;;;;;20.37;11.50;;;;;;;;;;5093108;28;20529;-67
2022/01/01 06:50:28;;;;;;;14.73;10.43;;;;;;;;;;5093596;28;20568;-67
2022/01/01 06:52:55;;;;;;;21.83;11.03;;;;;;;;;;5093493;28;20528;-67
2022/01/01 06:55:23;;;;;;;21.03;10.83;;;;;;;;;;5093488;28;20433;-67
2022/01/01 06:57:51;;;;;;;21.77;10.60;;;;;;;;;;5095362;28;20523;-67
2022/01/01 07:00:19;;;;;;;17.80;10.70;;;;;;;;;;5097422;28;20449;-67
2022/01/01 07:02:47;;;;;;;16.90;10.17;;;;;;;;;;5097519;28;20949;-67
2022/01/01 07:05:15;;;;;;;20.53;9.80;;;;;;;;;;5097223;28;20951;-67
2022/01/01 07:07:42;;;;;;;19.13;9.07;;;;;;;;;;5097211;28;20924;-67
2022/01/01 07:10:11;;;;;;;15.77;8.40;;;;;;;;;;5097091;28;20560;-67
2022/01/01 07:12:39;;;;;;;19.90;9.67;;;;;;;;;;5097178;28;20440;-67
2022/01/01 07:15:09;;;;;;;15.77;8.63;;;;;;;;;;5097824;28;20539;-67
2022/01/01 07:17:36;;;;;;;13.80;8.90;;;;;;;;;;5097465;28;20476;-67
2022/01/01 07:20:03;;;;;;;20.80;8.90;;;;;;;;;;5096951;28;20926;-67
2022/01/01 07:22:31;;;;;;;19.87;8.40;;;;;;;;;;5097349;28;21018;-67
2022/01/01 07:24:58;;;;;;;18.10;10.07;;;;;;;;;;5096854;28;20444;-67
2022/01/01 07:27:25;;;;;;;15.47;9.00;;;;;;;;;;5097279;28;20541;-67
2022/01/01 07:29:52;;;;;;;19.80;9.50;;;;;;;;;;5096711;28;21094;-67
2022/01/01 07:32:21;;;;;;;20.07;9.33;;;;;;;;;;5097027;28;20527;-67
2022/01/01 07:34:49;;;;;;;24.00;10.00;;;;;;;;;;5097142;28;20470;-67
2022/01/01 07:37:16;;;;;;;17.40;9.40;;;;;;;;;;5096801;28;21035;-67
2022/01/01 07:39:43;;;;;;;13.60;8.73;;;;;;;;;;5097100;28;20533;-68
2022/01/01 07:42:12;;;;;;;19.00;9.57;;;;;;;;;;5096797;28;20442;-67
2022/01/01 07:44:40;;;;;;;15.63;10.53;;;;;;;;;;5095935;28;20482;-67
2022/01/01 07:47:07;;;;;;;16.40;10.27;;;;;;;;;;5096332;28;20452;-67
2022/01/01 07:49:36;;;;;;;19.50;10.23;;;;;;;;;;5096609;28;20483;-67
2022/01/01 07:52:04;;;;;;;19.20;10.80;;;;;;;;;;5097102;28;20444;-67
2022/01/01 07:54:31;;;;;;;17.77;9.43;;;;;;;;;;5096663;28;20524;-67
2022/01/01 07:56:58;;;;;;;19.23;10.97;;;;;;;;;;5096948;28;20520;-67
2022/01/01 07:59:25;;;;;;;14.40;10.17;;;;;;;;;;5096512;28;20541;-67
2022/01/01 08:01:53;;;;;;;22.27;10.20;;;;;;;;;;5096462;28;20437;-67
2022/01/01 08:04:20;;;;;;;18.57;9.80;;;;;;;;;;5096579;28;20533;-67
2022/01/01 08:06:48;;;;;;;17.33;10.30;;;;;;;;;;5096524;28;20793;-67
2022/01/01 08:09:16;;;;;;;21.70;10.33;;;;;;;;;;5095590;28;20485;-67
2022/01/01 08:11:43;;;;;;;14.70;8.50;;;;;;;;;;5095997;28;20477;-67
2022/01/01 08:14:11;;;;;;;23.63;10.40;;;;;;;;;;5095746;28;21032;-67
2022/01/01 08:16:53;;;;;;;21.80;10.57;;;;;;;;;;5096171;28;20556;-67
2022/01/01 08:19:20;;;;;;;18.90;9.73;;;;;;;;;;5095701;28;20531;-67
2022/01/01 08:21:49;;;;;;;17.57;8.90;;;;;;;;;;5096023;28;20521;-67
2022/01/01 08:24:16;;;;;;;15.30;10.13;;;;;;;;;;5095702;28;20955;-67
2022/01/01 08:26:43;;;;;;;18.10;10.00;;;;;;;;;;5095670;28;20960;-67
2022/01/01 08:29:10;;;;;;;12.63;8.27;;;;;;;;;;5095879;28;20922;-67
2022/01/01 08:31:37;;;;;;;14.07;10.30;;;;;;;;;;5095955;28;20877;-67
2022/01/01 08:34:05;;;;;;;19.40;9.00;;;;;;;;;;5095553;28;20529;-68
2022/01/01 08:36:32;;;;;;;18.00;10.10;;;;;;;;;;5095581;28;20528;-67
2022/01/01 08:39:01;;;;;;;21.00;9.43;;;;;;;;;;5095836;28;20523;-67
2022/01/01 08:41:28;;;;;;;15.47;8.03;;;;;;;;;;5095431;28;20993;-67
2022/01/01 08:43:55;;;;;;;15.43;8.80;;;;;;;;;;5095674;28;20541;-67
2022/01/01 08:46:22;;;;;;;15.40;8.50;;;;;;;;;;5095396;28;20442;-67
2022/01/01 08:48:49;;;;;;;21.40;9.70;;;;;;;;;;5095828;28;20480;-68
2022/01/01 08:51:17;;;;;;;21.50;8.77;;;;;;;;;;5095211;28;20526;-67
2022/01/01 08:53:44;;;;;;;20.13;9.13;;;;;;;;;;5095479;28;20848;-68
2022/01/01 08:56:13;;;;;;;13.00;9.50;;;;;;;;;;5095488;28;20529;-68
2022/01/01 08:58:41;;;;;;;21.73;9.10;;;;;;;;;;5095897;28;20533;-67
2022/01/01 09:01:12;;;;;;;15.93;9.10;;;;;;;;;;5095331;28;20476;-68
2022/01/01 09:03:41;;;;;;;19.87;8.97;;;;;;;;;;5094997;28;20501;-68
2022/01/01 09:06:08;;;;;;;16.00;8.73;;;;;;;;;;5094959;28;20457;-68
2022/01/01 09:08:36;;;;;;;20.60;8.53;;;;;;;;;;5095251;28;20534;-68
2022/01/01 09:11:04;;;;;;;14.87;8.13;;;;;;;;;;5094768;28;20477;-68
2022/01/01 09:13:32;;;;;;;17.23;8.77;;;;;;;;;;5095199;28;20455;-68
2022/01/01 09:16:00;;;;;;;14.47;9.73;;;;;;;;;;5094679;28;20445;-67
2022/01/01 09:18:27;;;;;;;13.23;7.80;;;;;;;;;;5095252;28;20480;-67
2022/01/01 09:20:54;;;;;;;14.07;8.50;;;;;;;;;;5094398;28;20477;-68
2022/01/01 09:23:21;;;;;;;12.33;8.30;;;;;;;;;;5094938;28;20527;-69
2022/01/01 09:25:49;;;;;;;14.93;9.40;;;;;;;;;;5094840;28;20490;-68
2022/01/01 09:28:16;;;;;;;11.37;7.13;;;;;;;;;;5095507;28;20445;-68
2022/01/01 09:30:45;;;;;;;17.43;8.40;;;;;;;;;;5094974;28;20481;-67
2022/01/01 09:33:12;;;;;;;11.47;8.30;;;;;;;;;;5094413;28;20448;-66
2022/01/01 09:35:39;;;;;;;15.80;7.67;;;;;;;;;;5094754;28;20529;-67
2022/01/01 09:38:06;;;;;;;18.43;7.10;;;;;;;;;;5094310;28;20446;-67
2022/01/01 09:40:34;;;;;;;11.10;6.73;;;;;;;;;;5095082;28;20455;-67
2022/01/01 09:43:01;;;;;;;13.20;7.13;;;;;;;;;;5094515;28;20521;-67
2022/01/01 09:45:29;;;;;;;15.73;7.17;;;;;;;;;;5094028;28;20528;-70
2022/01/01 09:47:58;;;;;;;14.50;6.80;;;;;;;;;;5092544;28;21019;-67
2022/01/01 09:50:25;;;;;;;12.70;6.50;;;;;;;;;;5093816;28;20570;-68
2022/01/01 09:52:53;;;;;;;12.17;7.07;;;;;;;;;;5094449;28;20478;-68
2022/01/01 09:55:20;;;;;;;16.30;7.03;;;;;;;;;;5094170;28;20483;-68
2022/01/01 09:57:48;;;;;;;23.20;7.47;;;;;;;;;;5094151;28;20875;-68
2022/01/01 10:00:15;;;;;;;14.10;6.90;;;;;;;;;;5094223;28;20807;-68
2022/01/01 10:02:43;;;;;;;13.03;6.60;;;;;;;;;;5094134;28;20528;-69
2022/01/01 10:05:12;;;;;;;11.50;7.00;;;;;;;;;;5094049;28;20446;-68
2022/01/01 10:07:39;;;;;;;10.93;5.87;;;;;;;;;;5094321;28;20439;-68
2022/01/01 10:10:18;;;;;;;11.07;5.90;;;;;;;;;;5093589;28;20578;-68
2022/01/01 10:12:46;;;;;;;16.93;8.27;;;;;;;;;;5094427;28;20433;-68
2022/01/01 10:15:13;;;;;;;11.73;5.67;;;;;;;;;;5093794;28;20449;-67
2022/01/01 10:17:41;;;;;;;11.73;6.53;;;;;;;;;;5093952;28;20484;-68
2022/01/01 10:20:08;;;;;;;8.97;5.40;;;;;;;;;;5094025;28;20438;-67
2022/01/01 10:22:38;;;;;;;9.80;6.07;;;;;;;;;;5093877;28;20875;-67
2022/01/01 10:27:54;;;;;;;14.67;6.27;;;;;;;;;;5094039;28;20404;-67
2022/01/01 10:30:22;;;;;;;8.70;5.47;;;;;;;;;;5093658;28;20807;-67
2022/01/01 10:33:08;;;;;;;12.00;5.53;;;;;;;;;;5093709;28;20530;-67
2022/01/01 10:35:37;;;;;;;13.10;5.20;;;;;;;;;;5093413;28;20433;-67
2022/01/01 10:38:06;;;;;;;10.73;4.40;;;;;;;;;;5094108;28;20533;-67
2022/01/01 10:40:34;;;;;;;8.53;4.73;;;;;;;;;;5093492;28;20955;-67
2022/01/01 10:43:01;;;;;;;14.33;5.30;;;;;;;;;;5093039;28;20472;-67
2022/01/01 10:45:36;;;;;;;11.57;5.50;;;;;;;;;;5093484;28;20797;-67
2022/01/01 10:48:14;;;;;;;13.00;5.43;;;;;;;;;;5093237;28;20462;-68
2022/01/01 10:50:42;;;;;;;9.93;4.97;;;;;;;;;;5093173;28;20510;-69
2022/01/01 10:53:15;;;;;;;8.60;4.23;;;;;;;;;;5093434;28;20527;-67
2022/01/01 10:55:43;;;;;;;11.80;4.87;;;;;;;;;;5094022;28;20475;-67
2022/01/01 10:58:10;;;;;;;10.67;4.60;;;;;;;;;;5093103;28;20516;-67
2022/01/01 11:00:41;;;;;;;7.90;5.00;;;;;;;;;;5093120;28;20452;-67
2022/01/01 11:03:09;;;;;;;10.70;5.10;;;;;;;;;;5093407;28;20458;-67
2022/01/01 11:05:38;;;;;;;11.50;4.50;;;;;;;;;;5093109;28;20448;-67
2022/01/01 11:08:06;;;;;;;15.50;5.07;;;;;;;;;;5093085;28;20446;-67
2022/01/01 11:10:35;;;;;;;11.73;5.20;;;;;;;;;;5093016;28;20475;-67
2022/01/01 11:13:03;;;;;;;8.40;5.10;;;;;;;;;;5093311;28;20462;-67
2022/01/01 11:15:30;;;;;;;8.20;4.00;;;;;;;;;;5093223;28;20443;-67
2022/01/01 11:17:58;;;;;;;14.10;4.80;;;;;;;;;;5093936;28;20898;-68
2022/01/01 11:20:26;;;;;;;9.70;4.07;;;;;;;;;;5092978;28;20541;-68
2022/01/01 11:22:54;;;;;;;8.23;3.87;;;;;;;;;;5093563;28;20525;-67
2022/01/01 11:25:21;;;;;;;10.93;4.67;;;;;;;;;;5092856;28;20521;-67
2022/01/01 11:27:50;;;;;;;9.13;4.70;;;;;;;;;;5093098;28;20533;-67
2022/01/01 11:30:18;;;;;;;9.67;4.93;;;;;;;;;;5093055;28;20567;-68
2022/01/01 11:32:46;;;;;;;7.40;4.27;;;;;;;;;;5092784;28;20481;-67
2022/01/01 11:35:17;;;;;;;6.37;3.90;;;;;;;;;;5093390;28;20442;-67
2022/01/01 11:37:48;;;;;;;8.90;4.90;;;;;;;;;;5092837;28;20441;-67
2022/01/01 11:40:18;;;;;;;9.00;4.47;;;;;;;;;;5093159;28;20485;-68
2022/01/01 11:42:46;;;;;;;8.03;3.70;;;;;;;;;;5093601;28;20523;-68
2022/01/01 11:45:34;;;;;;;7.93;3.90;;;;;;;;;;5096401;28;20999;-69
2022/01/01 11:48:17;;;;;;;9.00;4.40;;;;;;;;;;5097102;28;20915;-67
2022/01/01 11:50:44;;;;;;;6.40;3.43;;;;;;;;;;5097309;28;20564;-67
2022/01/01 11:53:26;;;;;;;7.00;3.83;;;;;;;;;;5096493;28;20480;-67
2022/01/01 11:56:05;;;;;;;9.93;3.63;;;;;;;;;;5097144;28;20505;-67
2022/01/01 11:58:47;;;;;;;7.17;3.53;;;;;;;;;;5096948;28;20889;-68
2022/01/01 12:01:16;;;;;;;10.20;3.77;;;;;;;;;;5096885;28;20437;-68
2022/01/01 12:03:49;;;;;;;4.53;3.07;;;;;;;;;;5096540;28;20472;-68
2022/01/01 12:06:17;;;;;;;8.00;3.67;;;;;;;;;;5096919;28;20827;-68
2022/01/01 12:08:46;;;;;;;8.90;4.23;;;;;;;;;;5096571;28;20432;-69
2022/01/01 12:11:29;;;;;;;10.87;3.47;;;;;;;;;;5095945;28;20481;-69
2022/01/01 12:13:57;;;;;;;7.10;3.47;;;;;;;;;;5095812;28;20453;-69
2022/01/01 12:16:26;;;;;;;6.23;3.63;;;;;;;;;;5096110;28;20468;-69
2022/01/01 12:19:01;;;;;;;4.77;3.30;;;;;;;;;;5096054;28;20955;-69
2022/01/01 12:21:29;;;;;;;11.47;3.60;;;;;;;;;;5096260;28;20441;-69
2022/01/01 12:23:59;;;;;;;7.37;3.07;;;;;;;;;;5095807;28;20438;-69
2022/01/01 12:26:32;;;;;;;8.73;3.90;;;;;;;;;;5096901;28;20514;-69
2022/01/01 12:29:02;;;;;;;5.43;3.70;;;;;;;;;;5095766;28;20433;-69
2022/01/01 12:31:31;;;;;;;6.20;3.37;;;;;;;;;;5095580;28;20512;-69
2022/01/01 12:34:00;;;;;;;11.27;5.00;;;;;;;;;;5095551;28;20450;-70
2022/01/01 12:36:28;;;;;;;5.17;3.00;;;;;;;;;;5095806;28;20786;-69
2022/01/01 12:38:57;;;;;;;10.27;3.33;;;;;;;;;;5095792;28;20858;-70
2022/01/01 12:41:25;;;;;;;8.67;3.63;;;;;;;;;;5095729;28;20455;-69
2022/01/01 12:43:53;;;;;;;7.20;3.47;;;;;;;;;;5095797;28;20495;-69
2022/01/01 12:46:21;;;;;;;6.83;3.10;;;;;;;;;;5095519;28;20508;-69
2022/01/01 12:48:50;;;;;;;4.10;2.73;;;;;;;;;;5095334;28;20965;-69
2022/01/01 12:51:19;;;;;;;8.20;3.23;;;;;;;;;;5095501;28;20564;-70
2022/01/01 12:53:52;;;;;;;4.43;2.93;;;;;;;;;;5095807;28;20448;-69
2022/01/01 12:56:20;;;;;;;6.63;3.20;;;;;;;;;;5094067;28;20476;-70
2022/01/01 12:58:48;;;;;;;10.37;3.40;;;;;;;;;;5095381;28;20474;-69
2022/01/01 13:01:17;;;;;;;11.83;3.47;;;;;;;;;;5095321;28;20529;-69
2022/01/01 13:03:45;;;;;;;7.07;3.10;;;;;;;;;;5095280;28;20536;-69
2022/01/01 13:06:20;;;;;;;5.77;3.07;;;;;;;;;;5095222;28;20440;-68
2022/01/01 13:08:48;;;;;;;10.90;4.10;;;;;;;;;;5094987;28;20468;-69
2022/01/01 13:11:15;;;;;;;5.77;3.27;;;;;;;;;;5094822;28;20576;-69
2022/01/01 13:13:43;;;;;;;5.80;4.40;;;;;;;;;;5094944;28;20635;-68
2022/01/01 13:16:10;;;;;;;7.00;3.03;;;;;;;;;;5095312;28;20457;-68
2022/01/01 13:18:37;;;;;;;4.10;3.33;;;;;;;;;;5095412;28;20488;-69
2022/01/01 13:21:05;;;;;;;5.20;3.27;;;;;;;;;;5095060;28;20548;-68
2022/01/01 13:23:33;;;;;;;7.07;3.00;;;;;;;;;;5094618;28;20532;-70
2022/01/01 13:26:00;;;;;;;8.03;3.47;;;;;;;;;;5094529;28;20521;-68
2022/01/01 13:28:30;;;;;;;12.97;3.93;;;;;;;;;;5094582;28;20448;-68
2022/01/01 13:30:58;;;;;;;13.47;3.40;;;;;;;;;;5094722;28;20499;-69
2022/01/01 13:33:26;;;;;;;3.97;2.70;;;;;;;;;;5094711;28;20487;-69
2022/01/01 13:35:54;;;;;;;12.33;3.73;;;;;;;;;;5094406;28;20521;-70
2022/01/01 13:38:22;;;;;;;5.13;3.53;;;;;;;;;;5094615;28;20440;-69
2022/01/01 13:40:53;;;;;;;5.77;3.03;;;;;;;;;;5094748;28;20958;-70
2022/01/01 13:43:20;;;;;;;6.30;3.70;;;;;;;;;;5093866;28;20475;-70
2022/01/01 13:45:48;;;;;;;7.07;3.10;;;;;;;;;;5094790;28;20572;-70
2022/01/01 13:48:16;;;;;;;5.20;3.30;;;;;;;;;;5094098;28;20446;-71
2022/01/01 13:50:44;;;;;;;5.10;3.00;;;;;;;;;;5094389;28;20796;-69
2022/01/01 13:53:12;;;;;;;6.20;2.90;;;;;;;;;;5094042;28;20449;-70
2022/01/01 13:55:51;;;;;;;11.00;3.50;;;;;;;;;;5094289;28;20525;-69
2022/01/01 13:58:20;;;;;;;3.87;3.03;;;;;;;;;;5094786;28;20425;-68
2022/01/01 14:00:54;;;;;;;8.23;4.60;;;;;;;;;;5094118;28;20452;-70
2022/01/01 14:03:24;;;;;;;10.40;4.07;;;;;;;;;;5094204;28;20528;-69
2022/01/01 14:05:51;;;;;;;10.43;3.57;;;;;;;;;;5093457;28;20945;-68
2022/01/01 14:08:19;;;;;;;4.03;3.03;;;;;;;;;;5094317;28;20436;-69
2022/01/01 14:10:53;;;;;;;8.03;3.13;;;;;;;;;;5093903;28;20493;-69
2022/01/01 14:13:33;;;;;;;5.37;2.73;;;;;;;;;;5093844;28;20444;-69
2022/01/01 14:16:02;;;;;;;7.20;3.50;;;;;;;;;;5093736;28;20466;-69
2022/01/01 14:18:30;;;;;;;7.50;2.90;;;;;;;;;;5093840;28;20494;-68
2022/01/01 14:20:58;;;;;;;4.67;3.60;;;;;;;;;;5093811;28;20526;-68
2022/01/01 14:23:26;;;;;;;6.10;3.30;;;;;;;;;;5094128;28;20468;-68
2022/01/01 14:25:57;;;;;;;5.67;3.40;;;;;;;;;;5093472;28;20524;-68
2022/01/01 14:28:24;;;;;;;7.27;3.73;;;;;;;;;;5093800;28;20542;-67
2022/01/01 14:30:53;;;;;;;7.97;4.00;;;;;;;;;;5093352;28;20435;-68
2022/01/01 14:33:21;;;;;;;6.53;3.20;;;;;;;;;;5093233;28;20976;-67
2022/01/01 14:35:48;;;;;;;7.60;3.30;;;;;;;;;;5093397;28;21010;-67
2022/01/01 14:38:15;;;;;;;6.50;3.10;;;;;;;;;;5094035;28;20492;-68